LEMD/MAD METAR and TAF weather

Enter ICAO airport designator
Station Type Date Time Source
LEMD METAR 2020/11/25 22:30 UTC NOAA

LEMD 252230Z 14004KT 100V170 9999 -RA BKN038 SCT060 10/08 Q1013 TEMPO 4000 RA BKN016


Station Type Date Time Source
LEMD Decoded METAR 2020/11/25 22:30 UTC NOAA

Madrid / Barajas, Spain (LEMD) 40-27N 003-33W 582M
Nov 25, 2020 - 05:30 PM EST / 2020.11.25 2230 UTC
Wind: from the SE (140 degrees) at 5 MPH (4 KT) (direction variable):0
Visibility: greater than 7 mile(s):0
Sky conditions: mostly cloudy
Weather: light rain
Temperature: 50 F (10 C)
Dew Point: 46 F (8 C)
Relative Humidity: 87%
Pressure (altimeter): 29.91 in. Hg (1013 hPa)
ob: LEMD 252230Z 14004KT 100V170 9999 -RA BKN038 SCT060 10/08 Q1013 TEMPO 4000 RA BKN016
cycle: 22

Station Type Date Time Source
LEMD TAF 2020/11/25 18:28 UTC NOAA

TAF LEMD 251700Z 2518/2624 14010KT 9999 BKN025 OVC030 TX12/2615Z TN07/2606Z PROB40
TEMPO 2518/2520 RADZ SCT009 BKN014
TEMPO 2520/2624 RA BKN015 PROB40
TEMPO 2609/2624 3000 RA SCT009 BKN012

Example: see airport list